sensor_id;sensor_type;location;lat;lon;timestamp;P1;durP1;ratioP1;P2;durP2;ratioP2
84315;SDS011;74496;52.236;5.164;2023-12-04T00:01:42;14.55;;;8.73;;
84315;SDS011;74496;52.236;5.164;2023-12-04T00:04:11;15.57;;;9.50;;
84315;SDS011;74496;52.236;5.164;2023-12-04T00:06:38;17.13;;;10.65;;
84315;SDS011;74496;52.236;5.164;2023-12-04T00:09:05;15.63;;;10.37;;
84315;SDS011;74496;52.236;5.164;2023-12-04T00:11:31;18.60;;;10.75;;
84315;SDS011;74496;52.236;5.164;2023-12-04T00:13:58;17.83;;;10.27;;
84315;SDS011;74496;52.236;5.164;2023-12-04T00:16:25;18.95;;;10.85;;
84315;SDS011;74496;52.236;5.164;2023-12-04T00:18:52;18.20;;;10.45;;
84315;SDS011;74496;52.236;5.164;2023-12-04T00:21:20;16.60;;;8.73;;
84315;SDS011;74496;52.236;5.164;2023-12-04T00:23:46;20.33;;;9.85;;
84315;SDS011;74496;52.236;5.164;2023-12-04T00:26:13;19.35;;;10.32;;
84315;SDS011;74496;52.236;5.164;2023-12-04T00:28:42;20.08;;;10.32;;
84315;SDS011;74496;52.236;5.164;2023-12-04T00:31:08;19.88;;;10.32;;
84315;SDS011;74496;52.236;5.164;2023-12-04T00:33:36;13.80;;;8.55;;
84315;SDS011;74496;52.236;5.164;2023-12-04T00:36:03;22.23;;;10.35;;
84315;SDS011;74496;52.236;5.164;2023-12-04T00:38:32;19.67;;;10.82;;
84315;SDS011;74496;52.236;5.164;2023-12-04T00:40:59;17.85;;;9.57;;
84315;SDS011;74496;52.236;5.164;2023-12-04T00:43:25;17.73;;;8.70;;
84315;SDS011;74496;52.236;5.164;2023-12-04T00:45:52;23.77;;;10.75;;
84315;SDS011;74496;52.236;5.164;2023-12-04T00:48:19;19.42;;;10.43;;
84315;SDS011;74496;52.236;5.164;2023-12-04T00:50:46;19.13;;;10.50;;
84315;SDS011;74496;52.236;5.164;2023-12-04T00:53:12;17.00;;;9.38;;
84315;SDS011;74496;52.236;5.164;2023-12-04T00:55:41;18.63;;;10.13;;
84315;SDS011;74496;52.236;5.164;2023-12-04T00:58:07;20.70;;;9.30;;
84315;SDS011;74496;52.236;5.164;2023-12-04T01:00:34;13.85;;;8.65;;
84315;SDS011;74496;52.236;5.164;2023-12-04T01:03:01;17.98;;;10.13;;
84315;SDS011;74496;52.236;5.164;2023-12-04T01:05:27;21.80;;;10.77;;
84315;SDS011;74496;52.236;5.164;2023-12-04T01:07:54;15.98;;;9.13;;
84315;SDS011;74496;52.236;5.164;2023-12-04T01:10:21;17.35;;;10.68;;
84315;SDS011;74496;52.236;5.164;2023-12-04T01:12:49;14.85;;;9.02;;
84315;SDS011;74496;52.236;5.164;2023-12-04T01:15:15;15.70;;;10.05;;
84315;SDS011;74496;52.236;5.164;2023-12-04T01:17:43;14.32;;;8.50;;
84315;SDS011;74496;52.236;5.164;2023-12-04T01:20:10;21.80;;;9.90;;
84315;SDS011;74496;52.236;5.164;2023-12-04T01:22:37;19.37;;;11.30;;
84315;SDS011;74496;52.236;5.164;2023-12-04T01:25:04;15.38;;;10.10;;
84315;SDS011;74496;52.236;5.164;2023-12-04T01:27:31;18.25;;;9.48;;
84315;SDS011;74496;52.236;5.164;2023-12-04T01:30:01;13.25;;;9.73;;
84315;SDS011;74496;52.236;5.164;2023-12-04T01:32:28;16.45;;;9.52;;
84315;SDS011;74496;52.236;5.164;2023-12-04T01:34:55;16.03;;;8.97;;
84315;SDS011;74496;52.236;5.164;2023-12-04T01:37:22;17.70;;;10.45;;
84315;SDS011;74496;52.236;5.164;2023-12-04T01:39:49;15.88;;;9.65;;
84315;SDS011;74496;52.236;5.164;2023-12-04T01:42:16;16.17;;;9.40;;
84315;SDS011;74496;52.236;5.164;2023-12-04T01:44:42;16.48;;;8.98;;
84315;SDS011;74496;52.236;5.164;2023-12-04T01:47:10;18.73;;;9.63;;
84315;SDS011;74496;52.236;5.164;2023-12-04T01:49:38;17.88;;;10.15;;
84315;SDS011;74496;52.236;5.164;2023-12-04T01:52:05;17.00;;;10.13;;
84315;SDS011;74496;52.236;5.164;2023-12-04T01:54:32;17.88;;;10.30;;
84315;SDS011;74496;52.236;5.164;2023-12-04T01:56:59;23.70;;;10.38;;
84315;SDS011;74496;52.236;5.164;2023-12-04T01:59:26;13.37;;;7.47;;
84315;SDS011;74496;52.236;5.164;2023-12-04T02:01:52;18.25;;;9.93;;
84315;SDS011;74496;52.236;5.164;2023-12-04T02:04:21;19.15;;;10.20;;
84315;SDS011;74496;52.236;5.164;2023-12-04T02:06:48;14.38;;;9.10;;
84315;SDS011;74496;52.236;5.164;2023-12-04T02:09:15;20.88;;;9.98;;
84315;SDS011;74496;52.236;5.164;2023-12-04T02:11:41;16.83;;;9.40;;
84315;SDS011;74496;52.236;5.164;2023-12-04T02:14:08;20.50;;;10.63;;
84315;SDS011;74496;52.236;5.164;2023-12-04T02:16:36;19.92;;;11.15;;
84315;SDS011;74496;52.236;5.164;2023-12-04T02:19:07;18.23;;;9.95;;
84315;SDS011;74496;52.236;5.164;2023-12-04T02:21:35;18.88;;;10.27;;
84315;SDS011;74496;52.236;5.164;2023-12-04T02:24:04;18.30;;;10.10;;
84315;SDS011;74496;52.236;5.164;2023-12-04T02:26:31;17.42;;;10.48;;
84315;SDS011;74496;52.236;5.164;2023-12-04T02:29:07;20.42;;;10.63;;
84315;SDS011;74496;52.236;5.164;2023-12-04T02:31:36;14.55;;;9.07;;
84315;SDS011;74496;52.236;5.164;2023-12-04T02:34:07;18.92;;;9.55;;
84315;SDS011;74496;52.236;5.164;2023-12-04T02:36:38;17.95;;;10.48;;
84315;SDS011;74496;52.236;5.164;2023-12-04T02:39:08;17.02;;;9.70;;
84315;SDS011;74496;52.236;5.164;2023-12-04T02:41:35;17.77;;;9.98;;
84315;SDS011;74496;52.236;5.164;2023-12-04T02:44:02;18.38;;;9.93;;
84315;SDS011;74496;52.236;5.164;2023-12-04T02:46:28;17.00;;;10.00;;
84315;SDS011;74496;52.236;5.164;2023-12-04T02:48:55;17.30;;;9.75;;
84315;SDS011;74496;52.236;5.164;2023-12-04T02:51:22;21.17;;;11.07;;
84315;SDS011;74496;52.236;5.164;2023-12-04T02:53:51;17.13;;;10.55;;
84315;SDS011;74496;52.236;5.164;2023-12-04T02:56:19;16.90;;;9.30;;
84315;SDS011;74496;52.236;5.164;2023-12-04T02:58:46;20.00;;;10.55;;
84315;SDS011;74496;52.236;5.164;2023-12-04T03:01:13;20.33;;;11.47;;
84315;SDS011;74496;52.236;5.164;2023-12-04T03:03:39;20.52;;;10.45;;
84315;SDS011;74496;52.236;5.164;2023-12-04T03:06:06;17.05;;;9.10;;
84315;SDS011;74496;52.236;5.164;2023-12-04T03:08:33;17.08;;;10.60;;
84315;SDS011;74496;52.236;5.164;2023-12-04T03:11:01;20.20;;;10.90;;
84315;SDS011;74496;52.236;5.164;2023-12-04T03:13:30;21.43;;;10.70;;
84315;SDS011;74496;52.236;5.164;2023-12-04T03:15:56;16.80;;;10.23;;
84315;SDS011;74496;52.236;5.164;2023-12-04T03:18:23;17.83;;;10.23;;
84315;SDS011;74496;52.236;5.164;2023-12-04T03:20:50;19.20;;;10.45;;
84315;SDS011;74496;52.236;5.164;2023-12-04T03:23:17;16.77;;;9.60;;
84315;SDS011;74496;52.236;5.164;2023-12-04T03:25:44;19.60;;;10.13;;
84315;SDS011;74496;52.236;5.164;2023-12-04T03:28:11;16.65;;;9.35;;
84315;SDS011;74496;52.236;5.164;2023-12-04T03:30:39;22.00;;;10.38;;
84315;SDS011;74496;52.236;5.164;2023-12-04T03:33:08;17.52;;;10.30;;
84315;SDS011;74496;52.236;5.164;2023-12-04T03:35:35;14.70;;;9.88;;
84315;SDS011;74496;52.236;5.164;2023-12-04T03:38:01;16.30;;;9.50;;
84315;SDS011;74496;52.236;5.164;2023-12-04T03:40:28;22.45;;;9.85;;
84315;SDS011;74496;52.236;5.164;2023-12-04T03:42:55;18.13;;;10.65;;
84315;SDS011;74496;52.236;5.164;2023-12-04T03:45:21;16.00;;;8.95;;
84315;SDS011;74496;52.236;5.164;2023-12-04T03:47:49;20.67;;;9.40;;
84315;SDS011;74496;52.236;5.164;2023-12-04T03:50:16;16.67;;;9.47;;
84315;SDS011;74496;52.236;5.164;2023-12-04T03:52:43;15.43;;;9.05;;
84315;SDS011;74496;52.236;5.164;2023-12-04T03:55:09;16.35;;;9.18;;
84315;SDS011;74496;52.236;5.164;2023-12-04T03:57:36;20.23;;;10.00;;
84315;SDS011;74496;52.236;5.164;2023-12-04T04:00:03;19.00;;;9.25;;
84315;SDS011;74496;52.236;5.164;2023-12-04T04:02:37;16.23;;;9.80;;
84315;SDS011;74496;52.236;5.164;2023-12-04T04:05:07;17.50;;;9.88;;
84315;SDS011;74496;52.236;5.164;2023-12-04T04:07:34;16.27;;;8.98;;
84315;SDS011;74496;52.236;5.164;2023-12-04T04:10:01;17.63;;;9.93;;
84315;SDS011;74496;52.236;5.164;2023-12-04T04:12:29;15.15;;;9.20;;
84315;SDS011;74496;52.236;5.164;2023-12-04T04:14:56;16.53;;;9.47;;
84315;SDS011;74496;52.236;5.164;2023-12-04T04:17:23;13.20;;;8.75;;
84315;SDS011;74496;52.236;5.164;2023-12-04T04:19:51;12.98;;;7.50;;
84315;SDS011;74496;52.236;5.164;2023-12-04T04:22:19;16.15;;;9.05;;
84315;SDS011;74496;52.236;5.164;2023-12-04T04:24:45;19.40;;;9.30;;
84315;SDS011;74496;52.236;5.164;2023-12-04T04:27:12;17.70;;;9.50;;
84315;SDS011;74496;52.236;5.164;2023-12-04T04:29:39;17.27;;;9.02;;
84315;SDS011;74496;52.236;5.164;2023-12-04T04:32:06;16.65;;;9.68;;
84315;SDS011;74496;52.236;5.164;2023-12-04T04:34:32;15.20;;;8.45;;
84315;SDS011;74496;52.236;5.164;2023-12-04T04:36:59;15.75;;;8.80;;
84315;SDS011;74496;52.236;5.164;2023-12-04T04:39:27;17.37;;;9.00;;
84315;SDS011;74496;52.236;5.164;2023-12-04T04:41:54;14.93;;;8.82;;
84315;SDS011;74496;52.236;5.164;2023-12-04T04:44:21;14.10;;;7.88;;
84315;SDS011;74496;52.236;5.164;2023-12-04T04:46:47;16.73;;;9.32;;
84315;SDS011;74496;52.236;5.164;2023-12-04T04:49:14;11.98;;;7.55;;
84315;SDS011;74496;52.236;5.164;2023-12-04T04:51:41;18.13;;;7.97;;
84315;SDS011;74496;52.236;5.164;2023-12-04T04:54:08;14.07;;;7.90;;
84315;SDS011;74496;52.236;5.164;2023-12-04T04:56:36;15.60;;;8.32;;
84315;SDS011;74496;52.236;5.164;2023-12-04T04:59:03;16.17;;;8.52;;
84315;SDS011;74496;52.236;5.164;2023-12-04T05:01:30;15.32;;;8.52;;
84315;SDS011;74496;52.236;5.164;2023-12-04T05:03:56;16.23;;;8.10;;
84315;SDS011;74496;52.236;5.164;2023-12-04T05:06:23;15.10;;;8.70;;
84315;SDS011;74496;52.236;5.164;2023-12-04T05:08:50;16.52;;;9.30;;
84315;SDS011;74496;52.236;5.164;2023-12-04T05:11:17;15.18;;;8.68;;
84315;SDS011;74496;52.236;5.164;2023-12-04T05:13:45;17.23;;;9.48;;
84315;SDS011;74496;52.236;5.164;2023-12-04T05:16:12;18.50;;;8.73;;
84315;SDS011;74496;52.236;5.164;2023-12-04T05:18:39;14.65;;;8.73;;
84315;SDS011;74496;52.236;5.164;2023-12-04T05:21:07;14.60;;;9.15;;
84315;SDS011;74496;52.236;5.164;2023-12-04T05:23:34;15.68;;;8.02;;
84315;SDS011;74496;52.236;5.164;2023-12-04T05:26:01;20.65;;;9.25;;
84315;SDS011;74496;52.236;5.164;2023-12-04T05:28:28;13.83;;;9.17;;
84315;SDS011;74496;52.236;5.164;2023-12-04T05:30:56;14.60;;;8.75;;
84315;SDS011;74496;52.236;5.164;2023-12-04T05:33:23;14.02;;;8.23;;
84315;SDS011;74496;52.236;5.164;2023-12-04T05:35:50;15.35;;;8.98;;
84315;SDS011;74496;52.236;5.164;2023-12-04T05:38:17;13.32;;;8.13;;
84315;SDS011;74496;52.236;5.164;2023-12-04T05:40:44;13.70;;;8.50;;
84315;SDS011;74496;52.236;5.164;2023-12-04T05:43:11;12.32;;;7.78;;
84315;SDS011;74496;52.236;5.164;2023-12-04T05:45:38;15.25;;;8.52;;
84315;SDS011;74496;52.236;5.164;2023-12-04T05:48:06;13.52;;;7.43;;
84315;SDS011;74496;52.236;5.164;2023-12-04T05:50:33;16.25;;;8.63;;
84315;SDS011;74496;52.236;5.164;2023-12-04T05:53:00;13.27;;;8.57;;
84315;SDS011;74496;52.236;5.164;2023-12-04T05:55:26;14.55;;;7.80;;
84315;SDS011;74496;52.236;5.164;2023-12-04T05:57:53;13.80;;;8.18;;
84315;SDS011;74496;52.236;5.164;2023-12-04T06:00:20;16.75;;;8.20;;
84315;SDS011;74496;52.236;5.164;2023-12-04T06:02:47;12.57;;;7.45;;
84315;SDS011;74496;52.236;5.164;2023-12-04T06:05:15;11.00;;;7.53;;
84315;SDS011;74496;52.236;5.164;2023-12-04T06:07:42;10.25;;;7.10;;
84315;SDS011;74496;52.236;5.164;2023-12-04T06:10:09;11.73;;;6.13;;
84315;SDS011;74496;52.236;5.164;2023-12-04T06:12:35;7.05;;;5.18;;
84315;SDS011;74496;52.236;5.164;2023-12-04T06:15:03;13.80;;;7.57;;
84315;SDS011;74496;52.236;5.164;2023-12-04T06:17:30;12.97;;;7.60;;
84315;SDS011;74496;52.236;5.164;2023-12-04T06:19:57;11.85;;;8.13;;
84315;SDS011;74496;52.236;5.164;2023-12-04T06:22:25;12.38;;;7.82;;
84315;SDS011;74496;52.236;5.164;2023-12-04T06:24:52;10.50;;;7.50;;
84315;SDS011;74496;52.236;5.164;2023-12-04T06:27:19;12.32;;;7.60;;
84315;SDS011;74496;52.236;5.164;2023-12-04T06:29:47;9.57;;;7.63;;
84315;SDS011;74496;52.236;5.164;2023-12-04T06:32:16;17.08;;;7.18;;
84315;SDS011;74496;52.236;5.164;2023-12-04T06:34:44;12.38;;;7.63;;
84315;SDS011;74496;52.236;5.164;2023-12-04T06:37:12;13.48;;;7.03;;
84315;SDS011;74496;52.236;5.164;2023-12-04T06:39:41;12.02;;;7.07;;
84315;SDS011;74496;52.236;5.164;2023-12-04T06:42:11;11.47;;;7.47;;
84315;SDS011;74496;52.236;5.164;2023-12-04T06:44:38;11.10;;;7.82;;
84315;SDS011;74496;52.236;5.164;2023-12-04T06:47:05;13.15;;;7.00;;
84315;SDS011;74496;52.236;5.164;2023-12-04T06:49:35;11.82;;;7.35;;
84315;SDS011;74496;52.236;5.164;2023-12-04T06:52:02;10.00;;;6.68;;
84315;SDS011;74496;52.236;5.164;2023-12-04T06:54:29;15.93;;;7.50;;
84315;SDS011;74496;52.236;5.164;2023-12-04T06:56:57;8.88;;;6.22;;
84315;SDS011;74496;52.236;5.164;2023-12-04T06:59:24;11.50;;;7.45;;
84315;SDS011;74496;52.236;5.164;2023-12-04T07:01:50;10.25;;;7.10;;
84315;SDS011;74496;52.236;5.164;2023-12-04T07:04:17;8.85;;;6.40;;
84315;SDS011;74496;52.236;5.164;2023-12-04T07:06:46;10.77;;;5.63;;
84315;SDS011;74496;52.236;5.164;2023-12-04T07:09:13;10.15;;;6.63;;
84315;SDS011;74496;52.236;5.164;2023-12-04T07:11:39;11.45;;;6.68;;
84315;SDS011;74496;52.236;5.164;2023-12-04T07:14:07;9.63;;;6.38;;
84315;SDS011;74496;52.236;5.164;2023-12-04T07:16:38;9.02;;;6.88;;
84315;SDS011;74496;52.236;5.164;2023-12-04T07:19:06;9.30;;;6.10;;
84315;SDS011;74496;52.236;5.164;2023-12-04T07:21:34;9.55;;;6.65;;
84315;SDS011;74496;52.236;5.164;2023-12-04T07:24:01;8.45;;;6.30;;
84315;SDS011;74496;52.236;5.164;2023-12-04T07:26:28;10.98;;;7.28;;
84315;SDS011;74496;52.236;5.164;2023-12-04T07:28:55;11.90;;;7.38;;
84315;SDS011;74496;52.236;5.164;2023-12-04T07:31:23;10.53;;;6.30;;
84315;SDS011;74496;52.236;5.164;2023-12-04T07:33:51;9.40;;;6.47;;
84315;SDS011;74496;52.236;5.164;2023-12-04T07:36:17;10.65;;;6.65;;
84315;SDS011;74496;52.236;5.164;2023-12-04T07:38:45;10.98;;;7.60;;
84315;SDS011;74496;52.236;5.164;2023-12-04T07:41:12;8.32;;;6.38;;
84315;SDS011;74496;52.236;5.164;2023-12-04T07:43:39;13.03;;;6.47;;
84315;SDS011;74496;52.236;5.164;2023-12-04T07:46:06;13.05;;;6.93;;
84315;SDS011;74496;52.236;5.164;2023-12-04T07:48:34;8.55;;;6.68;;
84315;SDS011;74496;52.236;5.164;2023-12-04T07:51:00;9.48;;;6.65;;
84315;SDS011;74496;52.236;5.164;2023-12-04T07:53:28;9.10;;;6.78;;
84315;SDS011;74496;52.236;5.164;2023-12-04T07:55:54;12.20;;;6.53;;
84315;SDS011;74496;52.236;5.164;2023-12-04T07:58:21;9.85;;;6.07;;
84315;SDS011;74496;52.236;5.164;2023-12-04T08:00:48;10.85;;;6.63;;
84315;SDS011;74496;52.236;5.164;2023-12-04T08:03:15;8.63;;;6.50;;
84315;SDS011;74496;52.236;5.164;2023-12-04T08:05:43;10.82;;;6.65;;
84315;SDS011;74496;52.236;5.164;2023-12-04T08:08:10;7.43;;;5.35;;
84315;SDS011;74496;52.236;5.164;2023-12-04T08:10:36;8.35;;;5.82;;
84315;SDS011;74496;52.236;5.164;2023-12-04T08:13:03;9.27;;;6.13;;
84315;SDS011;74496;52.236;5.164;2023-12-04T08:15:30;9.52;;;6.75;;
84315;SDS011;74496;52.236;5.164;2023-12-04T08:17:57;9.15;;;6.38;;
84315;SDS011;74496;52.236;5.164;2023-12-04T08:20:24;8.87;;;6.27;;
84315;SDS011;74496;52.236;5.164;2023-12-04T08:22:52;7.20;;;5.90;;
84315;SDS011;74496;52.236;5.164;2023-12-04T08:25:20;7.60;;;5.97;;
84315;SDS011;74496;52.236;5.164;2023-12-04T08:27:47;10.13;;;6.43;;
84315;SDS011;74496;52.236;5.164;2023-12-04T08:30:15;7.55;;;6.22;;
84315;SDS011;74496;52.236;5.164;2023-12-04T08:32:42;8.73;;;6.15;;
84315;SDS011;74496;52.236;5.164;2023-12-04T08:35:09;8.40;;;6.32;;
84315;SDS011;74496;52.236;5.164;2023-12-04T08:37:36;8.07;;;6.13;;
84315;SDS011;74496;52.236;5.164;2023-12-04T08:40:05;9.45;;;6.00;;
84315;SDS011;74496;52.236;5.164;2023-12-04T08:42:33;9.70;;;5.50;;
84315;SDS011;74496;52.236;5.164;2023-12-04T08:45:00;7.27;;;6.13;;
84315;SDS011;74496;52.236;5.164;2023-12-04T08:47:27;8.07;;;5.57;;
84315;SDS011;74496;52.236;5.164;2023-12-04T08:49:53;8.55;;;6.00;;
84315;SDS011;74496;52.236;5.164;2023-12-04T08:52:20;7.28;;;5.30;;
84315;SDS011;74496;52.236;5.164;2023-12-04T08:54:47;7.70;;;5.70;;
84315;SDS011;74496;52.236;5.164;2023-12-04T08:57:15;7.50;;;5.18;;
84315;SDS011;74496;52.236;5.164;2023-12-04T08:59:42;8.63;;;5.57;;
84315;SDS011;74496;52.236;5.164;2023-12-04T09:02:08;7.30;;;5.25;;
84315;SDS011;74496;52.236;5.164;2023-12-04T09:04:35;6.47;;;5.18;;
84315;SDS011;74496;52.236;5.164;2023-12-04T09:07:02;6.40;;;5.07;;
84315;SDS011;74496;52.236;5.164;2023-12-04T09:09:29;8.73;;;5.82;;
84315;SDS011;74496;52.236;5.164;2023-12-04T09:11:57;7.82;;;4.95;;
84315;SDS011;74496;52.236;5.164;2023-12-04T09:14:25;7.55;;;4.97;;
84315;SDS011;74496;52.236;5.164;2023-12-04T09:16:53;7.10;;;5.63;;
84315;SDS011;74496;52.236;5.164;2023-12-04T09:19:19;10.85;;;5.25;;
84315;SDS011;74496;52.236;5.164;2023-12-04T09:21:46;8.77;;;5.60;;
84315;SDS011;74496;52.236;5.164;2023-12-04T09:24:13;7.18;;;5.53;;
84315;SDS011;74496;52.236;5.164;2023-12-04T09:26:40;7.95;;;5.65;;
84315;SDS011;74496;52.236;5.164;2023-12-04T09:29:06;13.07;;;4.78;;
84315;SDS011;74496;52.236;5.164;2023-12-04T09:31:39;5.30;;;4.80;;
84315;SDS011;74496;52.236;5.164;2023-12-04T09:34:05;7.25;;;5.10;;
84315;SDS011;74496;52.236;5.164;2023-12-04T09:36:33;6.85;;;5.10;;
84315;SDS011;74496;52.236;5.164;2023-12-04T09:39:00;6.20;;;5.18;;
84315;SDS011;74496;52.236;5.164;2023-12-04T09:41:28;7.13;;;4.85;;
84315;SDS011;74496;52.236;5.164;2023-12-04T09:43:55;6.30;;;4.75;;
84315;SDS011;74496;52.236;5.164;2023-12-04T09:46:22;6.78;;;5.07;;
84315;SDS011;74496;52.236;5.164;2023-12-04T09:48:53;6.65;;;4.97;;
84315;SDS011;74496;52.236;5.164;2023-12-04T09:51:22;8.23;;;5.47;;
84315;SDS011;74496;52.236;5.164;2023-12-04T09:53:51;8.10;;;4.72;;
84315;SDS011;74496;52.236;5.164;2023-12-04T09:56:20;9.27;;;5.82;;
84315;SDS011;74496;52.236;5.164;2023-12-04T09:58:49;6.70;;;5.20;;
84315;SDS011;74496;52.236;5.164;2023-12-04T10:01:21;8.27;;;4.63;;
84315;SDS011;74496;52.236;5.164;2023-12-04T10:03:48;8.95;;;5.05;;
84315;SDS011;74496;52.236;5.164;2023-12-04T10:06:16;5.70;;;5.00;;
84315;SDS011;74496;52.236;5.164;2023-12-04T10:08:43;10.27;;;5.18;;
84315;SDS011;74496;52.236;5.164;2023-12-04T10:11:10;6.10;;;4.63;;
84315;SDS011;74496;52.236;5.164;2023-12-04T10:13:38;6.43;;;4.85;;
84315;SDS011;74496;52.236;5.164;2023-12-04T10:16:07;6.00;;;4.70;;
84315;SDS011;74496;52.236;5.164;2023-12-04T10:18:34;6.60;;;4.82;;
84315;SDS011;74496;52.236;5.164;2023-12-04T10:21:01;6.88;;;4.57;;
84315;SDS011;74496;52.236;5.164;2023-12-04T10:23:37;8.38;;;4.68;;
84315;SDS011;74496;52.236;5.164;2023-12-04T10:26:05;7.28;;;4.78;;
84315;SDS011;74496;52.236;5.164;2023-12-04T10:28:33;10.48;;;4.80;;
84315;SDS011;74496;52.236;5.164;2023-12-04T10:31:00;8.75;;;4.57;;
84315;SDS011;74496;52.236;5.164;2023-12-04T10:33:28;7.07;;;4.90;;
84315;SDS011;74496;52.236;5.164;2023-12-04T10:35:56;6.60;;;4.50;;
84315;SDS011;74496;52.236;5.164;2023-12-04T10:38:23;5.45;;;4.55;;
84315;SDS011;74496;52.236;5.164;2023-12-04T10:40:54;8.10;;;4.88;;
84315;SDS011;74496;52.236;5.164;2023-12-04T10:43:22;5.40;;;4.57;;
84315;SDS011;74496;52.236;5.164;2023-12-04T10:45:50;8.85;;;5.65;;
84315;SDS011;74496;52.236;5.164;2023-12-04T10:48:18;5.38;;;4.32;;
84315;SDS011;74496;52.236;5.164;2023-12-04T10:50:46;7.25;;;5.18;;
84315;SDS011;74496;52.236;5.164;2023-12-04T10:53:15;6.05;;;4.72;;
84315;SDS011;74496;52.236;5.164;2023-12-04T10:55:42;9.93;;;4.97;;
84315;SDS011;74496;52.236;5.164;2023-12-04T10:58:12;7.68;;;5.38;;
84315;SDS011;74496;52.236;5.164;2023-12-04T11:00:43;5.40;;;4.90;;
84315;SDS011;74496;52.236;5.164;2023-12-04T11:03:12;10.18;;;5.88;;
84315;SDS011;74496;52.236;5.164;2023-12-04T11:05:45;5.55;;;4.65;;
84315;SDS011;74496;52.236;5.164;2023-12-04T11:08:16;9.10;;;4.90;;
84315;SDS011;74496;52.236;5.164;2023-12-04T11:10:45;7.60;;;5.30;;
84315;SDS011;74496;52.236;5.164;2023-12-04T11:13:17;9.98;;;5.68;;
84315;SDS011;74496;52.236;5.164;2023-12-04T11:15:47;7.95;;;5.43;;
84315;SDS011;74496;52.236;5.164;2023-12-04T11:18:16;7.50;;;5.38;;
84315;SDS011;74496;52.236;5.164;2023-12-04T11:20:51;9.40;;;5.53;;
84315;SDS011;74496;52.236;5.164;2023-12-04T11:23:21;9.43;;;5.35;;
84315;SDS011;74496;52.236;5.164;2023-12-04T11:25:48;8.10;;;5.78;;
84315;SDS011;74496;52.236;5.164;2023-12-04T11:28:17;6.95;;;5.28;;
84315;SDS011;74496;52.236;5.164;2023-12-04T11:30:45;7.80;;;5.38;;
84315;SDS011;74496;52.236;5.164;2023-12-04T11:33:13;10.55;;;5.88;;
84315;SDS011;74496;52.236;5.164;2023-12-04T11:35:39;6.70;;;5.53;;
84315;SDS011;74496;52.236;5.164;2023-12-04T11:38:06;6.53;;;5.25;;
84315;SDS011;74496;52.236;5.164;2023-12-04T11:40:35;9.98;;;6.32;;
84315;SDS011;74496;52.236;5.164;2023-12-04T11:43:05;9.25;;;5.55;;
84315;SDS011;74496;52.236;5.164;2023-12-04T11:45:48;6.53;;;5.43;;
84315;SDS011;74496;52.236;5.164;2023-12-04T11:48:15;9.98;;;6.05;;
84315;SDS011;74496;52.236;5.164;2023-12-04T11:50:42;6.90;;;5.13;;
84315;SDS011;74496;52.236;5.164;2023-12-04T11:53:10;7.32;;;5.88;;
84315;SDS011;74496;52.236;5.164;2023-12-04T11:55:39;10.32;;;6.45;;
84315;SDS011;74496;52.236;5.164;2023-12-04T11:58:08;11.95;;;6.38;;
84315;SDS011;74496;52.236;5.164;2023-12-04T12:00:36;7.30;;;5.78;;
84315;SDS011;74496;52.236;5.164;2023-12-04T12:03:06;10.43;;;6.25;;
84315;SDS011;74496;52.236;5.164;2023-12-04T12:05:35;9.68;;;6.10;;
84315;SDS011;74496;52.236;5.164;2023-12-04T12:08:05;10.68;;;6.63;;
84315;SDS011;74496;52.236;5.164;2023-12-04T12:10:33;8.65;;;6.35;;
84315;SDS011;74496;52.236;5.164;2023-12-04T12:13:00;10.82;;;6.30;;
84315;SDS011;74496;52.236;5.164;2023-12-04T12:15:27;6.95;;;5.60;;
84315;SDS011;74496;52.236;5.164;2023-12-04T12:17:55;11.93;;;6.82;;
84315;SDS011;74496;52.236;5.164;2023-12-04T12:20:26;10.23;;;6.55;;
84315;SDS011;74496;52.236;5.164;2023-12-04T12:22:53;8.60;;;6.82;;
84315;SDS011;74496;52.236;5.164;2023-12-04T12:25:19;9.65;;;6.88;;
84315;SDS011;74496;52.236;5.164;2023-12-04T12:27:47;8.18;;;6.38;;
84315;SDS011;74496;52.236;5.164;2023-12-04T12:30:14;10.43;;;6.65;;
84315;SDS011;74496;52.236;5.164;2023-12-04T12:32:41;8.35;;;6.70;;
84315;SDS011;74496;52.236;5.164;2023-12-04T12:35:08;12.32;;;7.20;;
84315;SDS011;74496;52.236;5.164;2023-12-04T12:37:37;14.20;;;7.25;;
84315;SDS011;74496;52.236;5.164;2023-12-04T12:40:05;8.80;;;6.30;;
84315;SDS011;74496;52.236;5.164;2023-12-04T12:42:35;12.40;;;6.63;;
84315;SDS011;74496;52.236;5.164;2023-12-04T12:45:04;8.20;;;7.03;;
84315;SDS011;74496;52.236;5.164;2023-12-04T12:47:32;8.20;;;6.55;;
84315;SDS011;74496;52.236;5.164;2023-12-04T12:50:00;9.73;;;6.72;;
84315;SDS011;74496;52.236;5.164;2023-12-04T12:52:28;9.88;;;6.78;;
84315;SDS011;74496;52.236;5.164;2023-12-04T12:54:56;10.45;;;6.95;;
84315;SDS011;74496;52.236;5.164;2023-12-04T12:57:23;10.35;;;7.20;;
84315;SDS011;74496;52.236;5.164;2023-12-04T12:59:52;13.30;;;7.38;;
84315;SDS011;74496;52.236;5.164;2023-12-04T13:02:19;11.25;;;7.00;;
84315;SDS011;74496;52.236;5.164;2023-12-04T13:04:46;9.00;;;7.20;;
84315;SDS011;74496;52.236;5.164;2023-12-04T13:07:13;9.82;;;7.28;;
84315;SDS011;74496;52.236;5.164;2023-12-04T13:09:40;10.93;;;7.82;;
84315;SDS011;74496;52.236;5.164;2023-12-04T13:12:10;12.80;;;8.10;;
84315;SDS011;74496;52.236;5.164;2023-12-04T13:14:37;12.25;;;6.93;;
84315;SDS011;74496;52.236;5.164;2023-12-04T13:17:04;11.45;;;6.38;;
84315;SDS011;74496;52.236;5.164;2023-12-04T13:19:31;10.68;;;7.32;;
84315;SDS011;74496;52.236;5.164;2023-12-04T13:21:59;8.57;;;6.85;;
84315;SDS011;74496;52.236;5.164;2023-12-04T13:24:26;10.27;;;7.20;;
84315;SDS011;74496;52.236;5.164;2023-12-04T13:26:53;9.32;;;7.68;;
84315;SDS011;74496;52.236;5.164;2023-12-04T13:29:22;9.30;;;7.38;;
84315;SDS011;74496;52.236;5.164;2023-12-04T13:31:49;11.32;;;7.15;;
84315;SDS011;74496;52.236;5.164;2023-12-04T13:34:16;11.10;;;8.25;;
84315;SDS011;74496;52.236;5.164;2023-12-04T13:36:42;11.93;;;8.02;;
84315;SDS011;74496;52.236;5.164;2023-12-04T13:39:09;17.00;;;7.43;;
84315;SDS011;74496;52.236;5.164;2023-12-04T13:41:42;12.02;;;7.45;;
84315;SDS011;74496;52.236;5.164;2023-12-04T13:44:28;10.82;;;7.22;;
84315;SDS011;74496;52.236;5.164;2023-12-04T13:46:57;11.48;;;8.25;;
84315;SDS011;74496;52.236;5.164;2023-12-04T13:49:24;11.68;;;7.78;;
84315;SDS011;74496;52.236;5.164;2023-12-04T13:51:50;10.80;;;7.35;;
84315;SDS011;74496;52.236;5.164;2023-12-04T13:54:18;9.65;;;7.57;;
84315;SDS011;74496;52.236;5.164;2023-12-04T13:56:52;7.40;;;5.50;;
84315;SDS011;74496;52.236;5.164;2023-12-04T13:59:19;13.65;;;7.15;;
84315;SDS011;74496;52.236;5.164;2023-12-04T14:01:48;12.10;;;7.00;;
84315;SDS011;74496;52.236;5.164;2023-12-04T14:04:16;11.23;;;7.75;;
84315;SDS011;74496;52.236;5.164;2023-12-04T14:06:44;11.38;;;7.88;;
84315;SDS011;74496;52.236;5.164;2023-12-04T14:09:11;14.90;;;7.13;;
84315;SDS011;74496;52.236;5.164;2023-12-04T14:11:41;13.55;;;7.50;;
84315;SDS011;74496;52.236;5.164;2023-12-04T14:14:09;10.65;;;7.13;;
84315;SDS011;74496;52.236;5.164;2023-12-04T14:16:37;11.90;;;7.78;;
84315;SDS011;74496;52.236;5.164;2023-12-04T14:19:06;11.02;;;7.93;;
84315;SDS011;74496;52.236;5.164;2023-12-04T14:21:32;12.88;;;7.93;;
84315;SDS011;74496;52.236;5.164;2023-12-04T14:23:59;10.73;;;7.82;;
84315;SDS011;74496;52.236;5.164;2023-12-04T14:26:26;10.77;;;7.22;;
84315;SDS011;74496;52.236;5.164;2023-12-04T14:28:53;11.05;;;7.90;;
84315;SDS011;74496;52.236;5.164;2023-12-04T14:31:21;10.60;;;7.05;;
84315;SDS011;74496;52.236;5.164;2023-12-04T14:33:48;10.23;;;6.95;;
84315;SDS011;74496;52.236;5.164;2023-12-04T14:36:16;9.75;;;6.60;;
84315;SDS011;74496;52.236;5.164;2023-12-04T14:38:42;14.15;;;7.53;;
84315;SDS011;74496;52.236;5.164;2023-12-04T14:41:09;10.43;;;7.28;;